Time;durP1;ratioP1;P1;durP2;ratioP2;P2;SDS_P1;SDS_P2;PMS_P1;PMS_P2;Temp;Humidity;BMP_temperature;BMP_pressure;BME280_temperature;BME280_humidity;BME280_pressure;Samples;Min_cycle;Max_cycle;Signal;HPM_P1;HPM_P2
2021/06/15 00:01:31;;;;;;;4.90;3.00;;;;;;;;;;6191976;28;20092;-83
2021/06/15 00:04:32;;;;;;;4.03;3.20;;;;;;;;;;6201694;28;20058;-83
2021/06/15 00:07:34;;;;;;;3.63;2.95;;;;;;;;;;6216319;28;20495;-82
2021/06/15 00:10:36;;;;;;;5.28;3.33;;;;;;;;;;6205111;28;20518;-81
2021/06/15 00:13:37;;;;;;;4.50;3.03;;;;;;;;;;6192593;28;20049;-82
2021/06/15 00:16:39;;;;;;;3.90;2.90;;;;;;;;;;6194092;28;20054;-83
2021/06/15 00:19:41;;;;;;;4.13;3.20;;;;;;;;;;6220569;28;20060;-83
2021/06/15 00:22:43;;;;;;;6.15;3.30;;;;;;;;;;6235382;28;20103;-82
2021/06/15 00:25:45;;;;;;;3.63;3.17;;;;;;;;;;6251342;28;20056;-83
2021/06/15 00:28:47;;;;;;;5.80;3.30;;;;;;;;;;6221488;28;20129;-82
2021/06/15 00:31:49;;;;;;;4.10;3.08;;;;;;;;;;6219859;28;20049;-83
2021/06/15 00:34:52;;;;;;;4.53;3.50;;;;;;;;;;6242257;28;20053;-82
2021/06/15 00:37:54;;;;;;;4.57;3.28;;;;;;;;;;6241756;28;20109;-83
2021/06/15 00:40:56;;;;;;;4.75;3.05;;;;;;;;;;6228583;28;20053;-82
2021/06/15 00:43:57;;;;;;;5.03;3.28;;;;;;;;;;6217019;28;20052;-83
2021/06/15 00:47:00;;;;;;;4.17;3.10;;;;;;;;;;6218668;28;20042;-82
2021/06/15 00:50:04;;;;;;;5.15;3.53;;;;;;;;;;6208363;28;20830;-83
2021/06/15 00:53:06;;;;;;;4.93;3.90;;;;;;;;;;6213005;28;20042;-83
2021/06/15 00:56:08;;;;;;;3.72;3.00;;;;;;;;;;6232350;28;20088;-81
2021/06/15 00:59:10;;;;;;;4.43;3.53;;;;;;;;;;6242598;28;20049;-81
2021/06/15 01:02:12;;;;;;;3.30;3.00;;;;;;;;;;6243553;28;20065;-81
2021/06/15 01:05:14;;;;;;;5.70;4.00;;;;;;;;;;6244416;28;20722;-83
2021/06/15 01:08:28;;;;;;;4.90;3.15;;;;;;;;;;6243629;28;20046;-83
2021/06/15 01:11:39;;;;;;;5.03;3.30;;;;;;;;;;6243683;28;20037;-82
2021/06/15 01:15:10;;;;;;;6.30;3.78;;;;;;;;;;6245051;28;20045;-83
2021/06/15 01:18:19;;;;;;;4.88;3.47;;;;;;;;;;6235230;28;20046;-83
2021/06/15 01:21:22;;;;;;;4.32;3.40;;;;;;;;;;6220614;28;20080;-83
2021/06/15 01:24:42;;;;;;;6.93;4.40;;;;;;;;;;6218106;28;20113;-83
2021/06/15 01:28:08;;;;;;;4.82;3.65;;;;;;;;;;6220708;28;20057;-83
2021/06/15 01:31:28;;;;;;;3.88;3.35;;;;;;;;;;6218433;28;20038;-82
2021/06/15 01:34:37;;;;;;;6.30;3.40;;;;;;;;;;6218428;28;20499;-83
2021/06/15 01:37:45;;;;;;;4.38;3.65;;;;;;;;;;6221080;28;20045;-82
2021/06/15 01:40:52;;;;;;;5.05;3.67;;;;;;;;;;6245428;28;20133;-83
2021/06/15 01:44:04;;;;;;;4.75;3.60;;;;;;;;;;6234504;28;20404;-83
2021/06/15 01:47:09;;;;;;;5.05;3.00;;;;;;;;;;6230709;28;20079;-82
2021/06/15 01:50:14;;;;;;;5.32;3.53;;;;;;;;;;6241572;28;20052;-81
2021/06/15 01:53:18;;;;;;;4.55;3.38;;;;;;;;;;6260770;28;20132;-84
2021/06/15 01:56:22;;;;;;;4.28;3.47;;;;;;;;;;6260364;28;20072;-83
2021/06/15 01:59:31;;;;;;;6.32;3.42;;;;;;;;;;6267657;28;20410;-83
2021/06/15 02:02:35;;;;;;;5.50;3.80;;;;;;;;;;6269063;28;20068;-83
2021/06/15 02:05:54;;;;;;;4.93;3.72;;;;;;;;;;6246154;28;20452;-83
2021/06/15 02:08:58;;;;;;;6.85;4.20;;;;;;;;;;6219614;28;20045;-83
2021/06/15 02:12:11;;;;;;;4.68;3.80;;;;;;;;;;6283510;28;20559;-83
2021/06/15 02:15:35;;;;;;;5.25;3.55;;;;;;;;;;6263477;28;20044;-83
2021/06/15 02:18:54;;;;;;;4.20;3.55;;;;;;;;;;6242894;28;20729;-82
2021/06/15 02:22:18;;;;;;;5.22;3.75;;;;;;;;;;6252209;28;20053;-83
2021/06/15 02:25:26;;;;;;;7.30;3.65;;;;;;;;;;6257945;28;20143;-83
2021/06/15 02:28:29;;;;;;;6.30;3.78;;;;;;;;;;6242338;28;20502;-81
2021/06/15 02:31:34;;;;;;;6.68;3.97;;;;;;;;;;6260337;28;20056;-82
2021/06/15 02:34:46;;;;;;;6.07;3.75;;;;;;;;;;6244602;28;20038;-81
2021/06/15 02:37:54;;;;;;;7.20;4.03;;;;;;;;;;6260746;28;20045;-81
2021/06/15 02:41:01;;;;;;;5.70;4.10;;;;;;;;;;6213808;28;20038;-80
2021/06/15 02:44:06;;;;;;;5.82;3.80;;;;;;;;;;6219976;28;20559;-81
2021/06/15 02:47:10;;;;;;;4.85;3.65;;;;;;;;;;6248005;28;20051;-81
2021/06/15 02:50:15;;;;;;;6.72;3.92;;;;;;;;;;6236693;28;20038;-81
2021/06/15 02:53:23;;;;;;;4.68;3.60;;;;;;;;;;6221515;28;20053;-80
2021/06/15 02:56:29;;;;;;;4.97;3.80;;;;;;;;;;6228815;28;20526;-81
2021/06/15 02:59:31;;;;;;;6.13;3.70;;;;;;;;;;6235768;28;20554;-81
2021/06/15 03:02:34;;;;;;;6.88;3.92;;;;;;;;;;6236399;28;20034;-81
2021/06/15 03:05:36;;;;;;;8.32;6.32;;;;;;;;;;6227435;28;20048;-82
2021/06/15 03:08:40;;;;;;;5.82;4.50;;;;;;;;;;6245145;28;20128;-81
2021/06/15 03:11:47;;;;;;;7.80;4.63;;;;;;;;;;6258637;28;20053;-82
2021/06/15 03:14:56;;;;;;;7.65;4.60;;;;;;;;;;6245678;28;20107;-82
2021/06/15 03:18:11;;;;;;;7.47;4.07;;;;;;;;;;6248141;28;20041;-82
2021/06/15 03:21:17;;;;;;;7.07;4.50;;;;;;;;;;6257134;28;20037;-81
2021/06/15 03:24:24;;;;;;;6.05;4.20;;;;;;;;;;6257267;28;20510;-81
2021/06/15 03:27:35;;;;;;;8.07;4.05;;;;;;;;;;6240802;28;20419;-82
2021/06/15 03:30:40;;;;;;;8.90;4.80;;;;;;;;;;6264432;28;20040;-82
2021/06/15 03:33:46;;;;;;;5.82;4.18;;;;;;;;;;6264271;28;20037;-82
2021/06/15 03:36:50;;;;;;;6.05;4.10;;;;;;;;;;6239441;28;20052;-80
2021/06/15 03:39:54;;;;;;;6.22;4.22;;;;;;;;;;6251126;28;20053;-82
2021/06/15 03:42:58;;;;;;;7.40;3.95;;;;;;;;;;6240899;28;20072;-83
2021/06/15 03:46:11;;;;;;;5.78;4.13;;;;;;;;;;6244883;28;20051;-80
2021/06/15 03:49:15;;;;;;;6.10;4.43;;;;;;;;;;6263332;28;20037;-81
2021/06/15 03:52:16;;;;;;;6.53;4.00;;;;;;;;;;6265252;28;20417;-81
2021/06/15 03:55:21;;;;;;;6.25;4.03;;;;;;;;;;6261634;28;20055;-81
2021/06/15 03:58:24;;;;;;;5.57;4.13;;;;;;;;;;6228407;28;20050;-82
2021/06/15 04:01:26;;;;;;;6.85;4.50;;;;;;;;;;6244691;28;20128;-80
2021/06/15 04:04:31;;;;;;;6.50;4.40;;;;;;;;;;6245159;28;20037;-81
2021/06/15 04:07:33;;;;;;;7.45;4.65;;;;;;;;;;6245838;28;20048;-82
2021/06/15 04:10:37;;;;;;;7.15;4.53;;;;;;;;;;6254788;28;20171;-81
2021/06/15 04:13:41;;;;;;;7.03;4.20;;;;;;;;;;6270845;28;20447;-80
2021/06/15 04:16:44;;;;;;;5.82;3.70;;;;;;;;;;6270749;28;20041;-81
2021/06/15 04:19:49;;;;;;;7.93;4.60;;;;;;;;;;6246992;28;20096;-81
2021/06/15 04:22:52;;;;;;;6.30;3.90;;;;;;;;;;6221228;28;20589;-81
2021/06/15 04:25:54;;;;;;;5.43;3.92;;;;;;;;;;6232566;28;20057;-80
2021/06/15 04:28:57;;;;;;;6.80;4.40;;;;;;;;;;6243844;28;20045;-81
2021/06/15 04:32:01;;;;;;;8.30;4.43;;;;;;;;;;6224590;28;20048;-81
2021/06/15 04:35:05;;;;;;;5.47;3.92;;;;;;;;;;6232752;28;20041;-82
2021/06/15 04:38:27;;;;;;;7.45;4.18;;;;;;;;;;6218516;28;20073;-82
2021/06/15 04:41:41;;;;;;;6.38;4.60;;;;;;;;;;6208059;28;20057;-81
2021/06/15 04:44:45;;;;;;;5.90;4.53;;;;;;;;;;6217525;28;20400;-81
2021/06/15 04:47:58;;;;;;;6.13;4.60;;;;;;;;;;6255250;28;20051;-81
2021/06/15 04:51:01;;;;;;;8.30;4.55;;;;;;;;;;6267612;28;20433;-81
2021/06/15 04:54:05;;;;;;;7.10;5.00;;;;;;;;;;6268058;28;20082;-82
2021/06/15 04:57:11;;;;;;;7.55;4.72;;;;;;;;;;6243864;28;20045;-81
2021/06/15 05:00:14;;;;;;;6.80;4.85;;;;;;;;;;6241994;28;20041;-81
2021/06/15 05:03:18;;;;;;;8.38;4.82;;;;;;;;;;6242647;28;20084;-81
2021/06/15 05:06:21;;;;;;;6.43;4.20;;;;;;;;;;6233077;28;20125;-82
2021/06/15 05:09:25;;;;;;;7.72;4.22;;;;;;;;;;6217014;28;20564;-82
2021/06/15 05:12:34;;;;;;;6.32;4.22;;;;;;;;;;6199901;28;20116;-81
2021/06/15 05:15:41;;;;;;;6.47;4.60;;;;;;;;;;6218244;28;20535;-81
2021/06/15 05:18:43;;;;;;;6.63;4.55;;;;;;;;;;6202296;28;20046;-81
2021/06/15 05:22:07;;;;;;;6.97;5.18;;;;;;;;;;6242084;28;20101;-81
2021/06/15 05:25:10;;;;;;;7.28;5.18;;;;;;;;;;6223188;28;20120;-82
2021/06/15 05:28:11;;;;;;;7.80;5.30;;;;;;;;;;6257129;28;20068;-81
2021/06/15 05:31:13;;;;;;;7.25;5.18;;;;;;;;;;6241821;28;20048;-81
2021/06/15 05:34:15;;;;;;;7.13;4.45;;;;;;;;;;6256292;28;20045;-81
2021/06/15 05:37:17;;;;;;;6.95;5.13;;;;;;;;;;6241926;28;20046;-82
2021/06/15 05:40:19;;;;;;;6.57;4.80;;;;;;;;;;6245660;28;20037;-81
2021/06/15 05:43:21;;;;;;;6.50;4.88;;;;;;;;;;6247982;28;20049;-81
2021/06/15 05:46:23;;;;;;;6.75;5.30;;;;;;;;;;6263549;28;20122;-81
2021/06/15 05:49:24;;;;;;;8.82;4.72;;;;;;;;;;6262357;28;20052;-81
2021/06/15 05:52:26;;;;;;;7.25;4.72;;;;;;;;;;6245221;28;20068;-81
2021/06/15 05:55:28;;;;;;;7.53;4.93;;;;;;;;;;6261516;28;20048;-82
2021/06/15 05:58:30;;;;;;;5.67;4.47;;;;;;;;;;6266455;28;20044;-81
2021/06/15 06:01:32;;;;;;;6.55;4.78;;;;;;;;;;6265030;28;20114;-81
2021/06/15 06:04:47;;;;;;;8.57;5.13;;;;;;;;;;6223808;28;20038;-82
2021/06/15 06:08:07;;;;;;;7.55;5.10;;;;;;;;;;6217920;28;20514;-83
2021/06/15 06:11:09;;;;;;;7.15;4.93;;;;;;;;;;6247110;28;20045;-80
2021/06/15 06:14:11;;;;;;;7.38;5.10;;;;;;;;;;6269655;28;20041;-81
2021/06/15 06:17:13;;;;;;;7.05;4.65;;;;;;;;;;6269466;28;20125;-81
2021/06/15 06:20:36;;;;;;;6.30;5.25;;;;;;;;;;6269812;28;22490;-81
2021/06/15 06:23:39;;;;;;;5.43;4.72;;;;;;;;;;6268278;28;20110;-82
2021/06/15 06:26:40;;;;;;;7.00;5.20;;;;;;;;;;6248778;28;20045;-81
2021/06/15 06:29:42;;;;;;;6.65;4.82;;;;;;;;;;6244994;28;20116;-83
2021/06/15 06:32:44;;;;;;;7.47;5.25;;;;;;;;;;6257585;28;20053;-81
2021/06/15 06:35:45;;;;;;;9.15;5.18;;;;;;;;;;6238620;28;20103;-81
2021/06/15 06:38:52;;;;;;;6.70;5.18;;;;;;;;;;6243479;28;20045;-81
2021/06/15 06:41:53;;;;;;;8.25;4.90;;;;;;;;;;6238100;28;20161;-79
2021/06/15 06:44:55;;;;;;;5.88;4.47;;;;;;;;;;6236150;28;20398;-81
2021/06/15 06:47:57;;;;;;;8.10;5.07;;;;;;;;;;6262432;28;20456;-81
2021/06/15 06:50:59;;;;;;;5.93;4.55;;;;;;;;;;6244871;28;20049;-81
2021/06/15 06:54:00;;;;;;;8.73;4.70;;;;;;;;;;6234329;28;20136;-81
2021/06/15 06:57:02;;;;;;;6.40;4.80;;;;;;;;;;6217974;28;20089;-81
2021/06/15 07:00:04;;;;;;;7.60;5.00;;;;;;;;;;6218824;28;20049;-81
2021/06/15 07:03:06;;;;;;;6.03;4.90;;;;;;;;;;6217725;28;20121;-82
2021/06/15 07:06:08;;;;;;;5.82;4.50;;;;;;;;;;6216490;28;20121;-81
2021/06/15 07:09:09;;;;;;;6.57;4.85;;;;;;;;;;6216734;28;20125;-81
2021/06/15 07:12:13;;;;;;;7.75;4.57;;;;;;;;;;6259406;28;20148;-82
2021/06/15 07:15:16;;;;;;;7.75;4.50;;;;;;;;;;6269113;28;20112;-81
2021/06/15 07:18:20;;;;;;;7.95;4.43;;;;;;;;;;6267575;28;20051;-81
2021/06/15 07:21:25;;;;;;;6.07;4.65;;;;;;;;;;6275081;28;20055;-80
2021/06/15 07:24:26;;;;;;;9.07;4.40;;;;;;;;;;6265134;28;20061;-81
2021/06/15 07:27:28;;;;;;;7.93;4.57;;;;;;;;;;6244736;28;20176;-82
2021/06/15 07:30:31;;;;;;;7.43;4.63;;;;;;;;;;6240549;28;20039;-82
2021/06/15 07:33:33;;;;;;;6.15;4.35;;;;;;;;;;6242291;28;20061;-81
2021/06/15 07:36:35;;;;;;;7.07;4.30;;;;;;;;;;6256158;28;20052;-81
2021/06/15 07:39:36;;;;;;;9.50;4.60;;;;;;;;;;6241198;28;20091;-81
2021/06/15 07:42:38;;;;;;;6.30;4.53;;;;;;;;;;6264057;28;20048;-81
2021/06/15 07:45:40;;;;;;;7.57;4.32;;;;;;;;;;6264664;28;20521;-82
2021/06/15 07:48:42;;;;;;;8.60;4.80;;;;;;;;;;6261485;28;20045;-82
2021/06/15 07:51:44;;;;;;;8.85;4.78;;;;;;;;;;6261637;28;20051;-81
2021/06/15 07:55:06;;;;;;;6.40;4.80;;;;;;;;;;6257075;28;20060;-82
2021/06/15 07:58:07;;;;;;;5.20;4.70;;;;;;;;;;6220628;28;20055;-83
2021/06/15 08:01:09;;;;;;;6.95;5.18;;;;;;;;;;6235891;28;20418;-82
2021/06/15 08:04:14;;;;;;;9.40;5.65;;;;;;;;;;6246855;28;20520;-82
2021/06/15 08:07:15;;;;;;;6.25;5.10;;;;;;;;;;6263787;28;20132;-83
2021/06/15 08:10:19;;;;;;;9.10;4.90;;;;;;;;;;6255939;28;20045;-82
2021/06/15 08:13:20;;;;;;;6.30;4.95;;;;;;;;;;6239738;28;20101;-81
2021/06/15 08:16:23;;;;;;;9.43;5.07;;;;;;;;;;6242319;28;20045;-82
2021/06/15 08:19:25;;;;;;;6.88;4.30;;;;;;;;;;6238211;28;20118;-83
2021/06/15 08:22:27;;;;;;;8.48;5.00;;;;;;;;;;6257767;28;20514;-81
2021/06/15 08:25:28;;;;;;;6.85;4.63;;;;;;;;;;6257470;28;20520;-82
2021/06/15 08:28:30;;;;;;;9.00;5.13;;;;;;;;;;6264341;28;20137;-82
2021/06/15 08:31:32;;;;;;;6.55;5.10;;;;;;;;;;6263680;28;20128;-81
2021/06/15 08:34:35;;;;;;;8.77;4.80;;;;;;;;;;6243205;28;20442;-81
2021/06/15 08:37:38;;;;;;;6.97;4.25;;;;;;;;;;6217057;28;20448;-82
2021/06/15 08:40:39;;;;;;;5.63;4.70;;;;;;;;;;6229353;28;20195;-82
2021/06/15 08:43:41;;;;;;;7.23;4.33;;;;;;;;;;6247930;28;20124;-79
2021/06/15 08:46:45;;;;;;;6.80;5.03;;;;;;;;;;6251869;28;20037;-79
2021/06/15 08:49:47;;;;;;;7.47;4.15;;;;;;;;;;6267615;28;20418;-79
2021/06/15 08:52:50;;;;;;;6.07;3.97;;;;;;;;;;6273997;28;20052;-80
2021/06/15 08:55:57;;;;;;;7.18;3.80;;;;;;;;;;6272627;28;20407;-80
2021/06/15 08:59:04;;;;;;;5.78;3.75;;;;;;;;;;6274153;28;20480;-80
2021/06/15 09:02:07;;;;;;;4.13;3.53;;;;;;;;;;6275486;28;20526;-81
2021/06/15 09:05:09;;;;;;;;;;;;;;;;;;6275819;28;20060;-78
2021/06/15 09:08:12;;;;;;;6.15;3.85;;;;;;;;;;6272775;28;20412;-79
2021/06/15 09:11:14;;;;;;;5.95;4.47;;;;;;;;;;6255192;28;20539;-79
2021/06/15 09:14:16;;;;;;;9.47;4.30;;;;;;;;;;6264383;28;20045;-81
2021/06/15 09:17:27;;;;;;;5.15;3.88;;;;;;;;;;6265336;28;20052;-81
2021/06/15 09:20:32;;;;;;;7.65;3.88;;;;;;;;;;6264264;28;20167;-80
2021/06/15 09:23:36;;;;;;;5.95;4.20;;;;;;;;;;6267149;28;20050;-79
2021/06/15 09:27:03;;;;;;;6.07;4.50;;;;;;;;;;6221260;28;20056;-81
2021/06/15 09:30:10;;;;;;;6.05;4.30;;;;;;;;;;6219612;28;20038;-80
2021/06/15 09:33:12;;;;;;;6.15;4.68;;;;;;;;;;6221696;28;20045;-81
2021/06/15 09:36:13;;;;;;;6.15;4.35;;;;;;;;;;6235971;28;20038;-81
2021/06/15 09:39:15;;;;;;;6.00;4.20;;;;;;;;;;6231145;28;20041;-80
2021/06/15 09:42:16;;;;;;;7.03;4.60;;;;;;;;;;6282937;28;20486;-81
2021/06/15 09:45:31;;;;;;;7.78;4.45;;;;;;;;;;6270728;28;20067;-81
2021/06/15 09:48:36;;;;;;;5.32;4.32;;;;;;;;;;6246394;28;20052;-80
2021/06/15 09:51:38;;;;;;;6.72;4.53;;;;;;;;;;6267092;28;20548;-80
2021/06/15 09:54:41;;;;;;;;;;;;;;;;;;6268182;28;20049;-81
2021/06/15 09:57:45;;;;;;;;;;;;;;;;;;6271384;28;19924;-81
2021/06/15 10:00:53;;;;;;;5.78;4.47;;;;;;;;;;6268600;28;19921;-82
2021/06/15 10:04:11;;;;;;;7.50;4.88;;;;;;;;;;6266971;28;20065;-84
2021/06/15 10:07:24;;;;;;;6.32;4.80;;;;;;;;;;6271464;28;20041;-84
2021/06/15 10:10:40;;;;;;;5.90;4.43;;;;;;;;;;6268905;28;20077;-84
2021/06/15 10:13:42;;;;;;;6.07;4.65;;;;;;;;;;6272194;28;20041;-83
2021/06/15 10:16:43;;;;;;;6.38;4.63;;;;;;;;;;6271162;28;20116;-83
2021/06/15 10:19:45;;;;;;;6.43;4.63;;;;;;;;;;6250250;28;20520;-84
2021/06/15 10:22:48;;;;;;;7.82;5.03;;;;;;;;;;6245407;28;20055;-84
2021/06/15 10:25:50;;;;;;;7.57;6.00;;;;;;;;;;6246540;28;20042;-85
2021/06/15 10:28:52;;;;;;;7.78;5.22;;;;;;;;;;6245256;28;20093;-84
2021/06/15 10:31:54;;;;;;;6.13;5.50;;;;;;;;;;6260462;28;20115;-84
2021/06/15 10:35:03;;;;;;;7.20;4.95;;;;;;;;;;6250676;28;20043;-84
2021/06/15 10:38:05;;;;;;;6.75;5.40;;;;;;;;;;6270823;28;20055;-81
2021/06/15 10:41:08;;;;;;;;;;;;;;;;;;6244430;28;20038;-83
2021/06/15 10:44:12;;;;;;;6.88;5.45;;;;;;;;;;6220782;28;19928;-83
2021/06/15 10:47:14;;;;;;;7.72;5.57;;;;;;;;;;6249143;28;20043;-81
2021/06/15 10:50:15;;;;;;;7.20;6.10;;;;;;;;;;6245134;28;20565;-82
2021/06/15 10:53:19;;;;;;;8.10;5.57;;;;;;;;;;6246537;28;20700;-83
2021/06/15 10:56:30;;;;;;;7.38;5.70;;;;;;;;;;6244912;28;20491;-82
2021/06/15 11:00:12;;;;;;;8.55;5.68;;;;;;;;;;6247177;28;20105;-82
2021/06/15 11:03:16;;;;;;;6.45;5.68;;;;;;;;;;6267282;28;20033;-82
2021/06/15 11:06:37;;;;;;;6.95;5.60;;;;;;;;;;6268757;28;20051;-82
2021/06/15 11:09:45;;;;;;;7.30;5.85;;;;;;;;;;6234574;28;20045;-82
2021/06/15 11:12:48;;;;;;;7.10;5.50;;;;;;;;;;6225774;28;20121;-81
2021/06/15 11:16:01;;;;;;;10.55;5.53;;;;;;;;;;6231180;28;20610;-81
2021/06/15 11:19:17;;;;;;;7.97;5.30;;;;;;;;;;6230199;28;20057;-81
2021/06/15 11:22:20;;;;;;;8.55;6.30;;;;;;;;;;6235373;28;20056;-81
2021/06/15 11:26:05;;;;;;;7.70;5.10;;;;;;;;;;6228188;28;20175;-81
2021/06/15 11:29:07;;;;;;;8.30;5.35;;;;;;;;;;6222177;28;20056;-81
2021/06/15 11:32:17;;;;;;;6.10;5.40;;;;;;;;;;6233644;28;20107;-83
2021/06/15 11:35:19;;;;;;;5.82;5.05;;;;;;;;;;6247340;28;20037;-83
2021/06/15 11:38:21;;;;;;;8.57;5.22;;;;;;;;;;6249086;28;20566;-83
2021/06/15 11:42:01;;;;;;;8.07;5.40;;;;;;;;;;6261916;28;20176;-82
2021/06/15 11:45:29;;;;;;;5.50;5.00;;;;;;;;;;6271581;28;20104;-82
2021/06/15 11:48:34;;;;;;;6.40;5.80;;;;;;;;;;6220748;28;20046;-83
2021/06/15 11:51:37;;;;;;;7.93;5.60;;;;;;;;;;6250280;28;20053;-83
2021/06/15 11:54:39;;;;;;;6.50;5.75;;;;;;;;;;6224036;28;20403;-83
2021/06/15 11:57:42;;;;;;;11.60;5.65;;;;;;;;;;6269918;28;20128;-83
2021/06/15 12:00:44;;;;;;;5.97;5.18;;;;;;;;;;6268660;28;20122;-84
2021/06/15 12:03:48;;;;;;;7.72;5.05;;;;;;;;;;6265733;28;20049;-83
2021/06/15 12:06:50;;;;;;;8.93;5.25;;;;;;;;;;6244835;28;20038;-83
2021/06/15 12:10:14;;;;;;;6.47;5.53;;;;;;;;;;6237417;28;20538;-83
2021/06/15 12:13:20;;;;;;;7.55;5.60;;;;;;;;;;6244880;28;20120;-83
2021/06/15 12:16:25;;;;;;;6.30;5.63;;;;;;;;;;6246874;28;20132;-82
2021/06/15 12:19:36;;;;;;;6.53;5.85;;;;;;;;;;6221355;28;20046;-83
2021/06/15 12:22:38;;;;;;;7.82;6.25;;;;;;;;;;6201131;28;20050;-83
2021/06/15 12:25:40;;;;;;;6.65;6.00;;;;;;;;;;6208859;28;20048;-83
2021/06/15 12:28:44;;;;;;;10.02;6.18;;;;;;;;;;6222182;28;20050;-83
2021/06/15 12:31:48;;;;;;;7.35;5.95;;;;;;;;;;6256677;28;20049;-82
2021/06/15 12:34:50;;;;;;;8.65;6.10;;;;;;;;;;6242009;28;20046;-82
2021/06/15 12:37:51;;;;;;;7.20;5.65;;;;;;;;;;6271399;28;20170;-82
2021/06/15 12:40:53;;;;;;;7.32;5.55;;;;;;;;;;6259863;28;20052;-82
2021/06/15 12:44:00;;;;;;;8.38;5.60;;;;;;;;;;6248688;28;20122;-83
2021/06/15 12:47:11;;;;;;;6.97;5.90;;;;;;;;;;6248741;28;20048;-82
2021/06/15 12:50:21;;;;;;;8.40;5.80;;;;;;;;;;6265181;28;20041;-83
2021/06/15 12:53:26;;;;;;;6.60;5.65;;;;;;;;;;6261308;28;20160;-82
2021/06/15 12:56:30;;;;;;;6.32;5.72;;;;;;;;;;6230651;28;20075;-81
2021/06/15 12:59:40;;;;;;;8.18;5.10;;;;;;;;;;6229278;28;20040;-82
2021/06/15 13:02:42;;;;;;;6.13;5.13;;;;;;;;;;6238968;28;20049;-81
2021/06/15 13:05:44;;;;;;;10.18;5.30;;;;;;;;;;6245783;28;20120;-82
2021/06/15 13:08:46;;;;;;;10.55;5.82;;;;;;;;;;6249119;28;20045;-82
2021/06/15 13:11:56;;;;;;;7.82;5.82;;;;;;;;;;6267665;28;20055;-82
2021/06/15 13:15:06;;;;;;;6.57;5.68;;;;;;;;;;6274287;28;20072;-82
2021/06/15 13:18:11;;;;;;;6.20;5.60;;;;;;;;;;6262959;28;20047;-82
2021/06/15 13:21:13;;;;;;;7.78;5.47;;;;;;;;;;6249423;28;20115;-83
2021/06/15 13:24:14;;;;;;;5.53;5.03;;;;;;;;;;6250529;28;20057;-82
2021/06/15 13:27:19;;;;;;;7.95;5.38;;;;;;;;;;6247241;28;20403;-82
2021/06/15 13:30:32;;;;;;;7.70;5.47;;;;;;;;;;6247795;28;20113;-82
2021/06/15 13:33:35;;;;;;;5.90;5.28;;;;;;;;;;6248476;28;20053;-82
2021/06/15 13:36:38;;;;;;;8.57;5.75;;;;;;;;;;6266425;28;20098;-82
2021/06/15 13:39:45;;;;;;;6.82;6.05;;;;;;;;;;6269094;28;23004;-81
2021/06/15 13:42:46;;;;;;;8.43;5.65;;;;;;;;;;6247799;28;20164;-81
2021/06/15 13:45:49;;;;;;;6.50;5.65;;;;;;;;;;6247619;28;20033;-81
2021/06/15 13:49:10;;;;;;;7.88;6.45;;;;;;;;;;6257353;28;20057;-81
2021/06/15 13:52:11;;;;;;;7.32;6.32;;;;;;;;;;6271520;28;20112;-80
2021/06/15 13:55:14;;;;;;;6.30;5.63;;;;;;;;;;6274544;28;20113;-81
2021/06/15 13:58:16;;;;;;;8.63;6.30;;;;;;;;;;6274493;28;20055;-81
2021/06/15 14:01:18;;;;;;;11.68;6.80;;;;;;;;;;6269487;28;20409;-84
2021/06/15 14:04:20;;;;;;;6.93;6.22;;;;;;;;;;6242301;28;20549;-83
2021/06/15 14:07:21;;;;;;;6.70;5.75;;;;;;;;;;6258886;28;20405;-81
2021/06/15 14:10:25;;;;;;;11.40;6.78;;;;;;;;;;6234662;28;20689;-83
2021/06/15 14:13:27;;;;;;;9.23;6.63;;;;;;;;;;6249494;28;20465;-85
2021/06/15 14:16:28;;;;;;;8.10;7.28;;;;;;;;;;6276441;28;20217;-84
2021/06/15 14:19:30;;;;;;;10.57;7.20;;;;;;;;;;6244572;28;20068;-83
2021/06/15 14:22:33;;;;;;;9.20;6.93;;;;;;;;;;6264137;28;20045;-83
2021/06/15 14:25:35;;;;;;;10.85;6.30;;;;;;;;;;6234004;28;20451;-81
2021/06/15 14:28:38;;;;;;;7.93;6.63;;;;;;;;;;6243246;28;20637;-83
2021/06/15 14:31:40;;;;;;;10.30;7.43;;;;;;;;;;6241255;28;20041;-83
2021/06/15 14:34:42;;;;;;;7.43;6.63;;;;;;;;;;6251064;28;20037;-83
2021/06/15 14:37:45;;;;;;;;;;;;;;;;;;6243926;28;20052;-80
2021/06/15 14:40:47;;;;;;;8.23;7.07;;;;;;;;;;6254382;28;19925;-78
2021/06/15 14:43:48;;;;;;;8.53;7.13;;;;;;;;;;6235882;28;20049;-82
2021/06/15 14:46:50;;;;;;;13.33;7.50;;;;;;;;;;6232143;28;20053;-80
2021/06/15 14:49:52;;;;;;;9.80;7.00;;;;;;;;;;6227589;28;20048;-81
2021/06/15 14:52:53;;;;;;;9.43;6.97;;;;;;;;;;6227757;28;20042;-80
2021/06/15 14:55:57;;;;;;;10.60;6.70;;;;;;;;;;6232295;28;20049;-82
2021/06/15 14:58:59;;;;;;;8.00;6.82;;;;;;;;;;6239770;28;20042;-81
2021/06/15 15:02:01;;;;;;;9.07;7.03;;;;;;;;;;6236696;28;20070;-82
2021/06/15 15:05:04;;;;;;;9.55;7.53;;;;;;;;;;6247458;28;20448;-80
2021/06/15 15:08:05;;;;;;;7.65;6.85;;;;;;;;;;6236732;28;20117;-81
2021/06/15 15:11:08;;;;;;;9.43;6.97;;;;;;;;;;6239038;28;20418;-78
2021/06/15 15:14:09;;;;;;;;;;;;;;;;;;6243701;28;20049;-80
2021/06/15 15:17:13;;;;;;;13.98;7.50;;;;;;;;;;6255156;28;19925;-78
2021/06/15 15:20:20;;;;;;;13.00;7.07;;;;;;;;;;6234635;28;20415;-77
2021/06/15 15:23:23;;;;;;;8.02;6.75;;;;;;;;;;6213140;28;20136;-78
2021/06/15 15:26:26;;;;;;;10.13;6.90;;;;;;;;;;6227080;28;20048;-78
2021/06/15 15:29:28;;;;;;;9.23;7.15;;;;;;;;;;6234216;28;20059;-80
2021/06/15 15:32:30;;;;;;;8.13;6.47;;;;;;;;;;6236185;28;20029;-80
2021/06/15 15:35:36;;;;;;;8.48;6.85;;;;;;;;;;6245468;28;20431;-79
2021/06/15 15:38:38;;;;;;;7.78;6.95;;;;;;;;;;6223490;28;20051;-79
2021/06/15 15:41:40;;;;;;;8.90;6.53;;;;;;;;;;6223334;28;20045;-78
2021/06/15 15:44:41;;;;;;;8.40;6.82;;;;;;;;;;6235564;28;20113;-82
2021/06/15 15:47:43;;;;;;;9.38;7.15;;;;;;;;;;6242639;28;20049;-78
2021/06/15 15:50:45;;;;;;;11.73;7.40;;;;;;;;;;6236206;28;20049;-81
2021/06/15 15:53:46;;;;;;;8.57;7.68;;;;;;;;;;6251672;28;20056;-79
2021/06/15 15:56:48;;;;;;;10.63;7.68;;;;;;;;;;6256255;28;20510;-80
2021/06/15 15:59:49;;;;;;;8.40;7.55;;;;;;;;;;6262856;28;20144;-82
2021/06/15 16:02:52;;;;;;;8.33;6.83;;;;;;;;;;6245597;28;20051;-82
2021/06/15 16:05:53;;;;;;;10.85;8.02;;;;;;;;;;6229780;28;20618;-82
2021/06/15 16:08:55;;;;;;;9.77;7.47;;;;;;;;;;6212094;28;20045;-81
2021/06/15 16:11:57;;;;;;;9.10;8.10;;;;;;;;;;6255082;28;20041;-82
2021/06/15 16:14:58;;;;;;;8.40;7.18;;;;;;;;;;6261117;28;20403;-80
2021/06/15 16:18:01;;;;;;;11.68;7.93;;;;;;;;;;6262486;28;20159;-81
2021/06/15 16:21:03;;;;;;;9.75;8.05;;;;;;;;;;6226779;28;20495;-81
2021/06/15 16:24:06;;;;;;;9.70;7.82;;;;;;;;;;6228960;28;20279;-78
2021/06/15 16:27:07;;;;;;;9.48;7.68;;;;;;;;;;6232950;28;20037;-80
2021/06/15 16:30:12;;;;;;;9.25;7.85;;;;;;;;;;6238381;28;20465;-78
2021/06/15 16:33:14;;;;;;;12.48;7.72;;;;;;;;;;6241042;28;20100;-78
2021/06/15 16:36:15;;;;;;;10.87;8.13;;;;;;;;;;6233688;28;20415;-79
2021/06/15 16:39:17;;;;;;;8.57;7.70;;;;;;;;;;6234185;28;20037;-78
2021/06/15 16:42:20;;;;;;;11.30;10.10;;;;;;;;;;6263205;28;20059;-78
2021/06/15 16:45:23;;;;;;;10.50;8.27;;;;;;;;;;6245316;28;20503;-78
2021/06/15 16:48:28;;;;;;;9.13;8.20;;;;;;;;;;6224640;28;20122;-78
2021/06/15 16:51:45;;;;;;;9.15;7.70;;;;;;;;;;6248535;28;20053;-78
2021/06/15 16:54:47;;;;;;;12.02;8.30;;;;;;;;;;6242149;28;20099;-82
2021/06/15 16:57:49;;;;;;;8.23;7.43;;;;;;;;;;6242569;28;20054;-80
2021/06/15 17:00:51;;;;;;;8.88;8.05;;;;;;;;;;6247158;28;20045;-79
2021/06/15 17:03:53;;;;;;;11.80;7.55;;;;;;;;;;6257385;28;20051;-78
2021/06/15 17:06:55;;;;;;;11.02;8.38;;;;;;;;;;6237505;28;20045;-79
2021/06/15 17:09:56;;;;;;;8.57;7.57;;;;;;;;;;6249755;28;20044;-80
2021/06/15 17:12:58;;;;;;;8.82;7.93;;;;;;;;;;6237935;28;20124;-79
2021/06/15 17:15:59;;;;;;;13.23;9.13;;;;;;;;;;6221606;28;20504;-79
2021/06/15 17:19:02;;;;;;;11.20;7.75;;;;;;;;;;6250023;28;20171;-77
2021/06/15 17:22:05;;;;;;;8.85;7.95;;;;;;;;;;6251209;28;20038;-76
2021/06/15 17:25:09;;;;;;;8.18;7.30;;;;;;;;;;6245343;28;20048;-78
2021/06/15 17:28:12;;;;;;;9.82;7.10;;;;;;;;;;6243733;28;20049;-82
2021/06/15 17:31:14;;;;;;;10.35;7.13;;;;;;;;;;6258582;28;20411;-83
2021/06/15 17:34:16;;;;;;;9.97;7.40;;;;;;;;;;6249393;28;20046;-82
2021/06/15 17:37:18;;;;;;;;;;;;;;;;;;6232448;28;20038;-82
2021/06/15 17:40:26;;;;;;;9.57;6.70;;;;;;;;;;6236113;28;19937;-81
2021/06/15 17:43:27;;;;;;;8.75;6.35;;;;;;;;;;6240435;28;20033;-82
2021/06/15 17:46:29;;;;;;;7.63;6.40;;;;;;;;;;6251971;28;21125;-80
2021/06/15 17:49:31;;;;;;;7.55;6.85;;;;;;;;;;6252419;28;20056;-83
2021/06/15 17:52:33;;;;;;;6.72;6.05;;;;;;;;;;6240173;28;20503;-80
2021/06/15 17:55:37;;;;;;;7.93;6.97;;;;;;;;;;6237376;28;20511;-83
2021/06/15 17:58:42;;;;;;;9.10;7.32;;;;;;;;;;6228043;28;20042;-83
2021/06/15 18:01:44;;;;;;;8.68;6.88;;;;;;;;;;6233922;28;20078;-82
2021/06/15 18:04:48;;;;;;;8.27;6.55;;;;;;;;;;6226434;28;20470;-81
2021/06/15 18:07:55;;;;;;;8.40;7.13;;;;;;;;;;6247014;28;20712;-84
2021/06/15 18:10:57;;;;;;;7.90;6.47;;;;;;;;;;6241794;28;20041;-81
2021/06/15 18:13:59;;;;;;;7.53;6.82;;;;;;;;;;6257785;28;20067;-84
2021/06/15 18:17:01;;;;;;;7.00;6.30;;;;;;;;;;6217844;28;20050;-84
2021/06/15 18:20:05;;;;;;;7.78;5.97;;;;;;;;;;6237193;28;20110;-82
2021/06/15 18:23:07;;;;;;;6.95;5.88;;;;;;;;;;6237322;28;20053;-82
2021/06/15 18:26:10;;;;;;;;;;;;;;;;;;6229799;28;20474;-84
2021/06/15 18:29:12;;;;;;;5.63;5.07;;;;;;;;;;6237605;28;19921;-83